Terminal Aerodrome Forecast
Issued by NWS

Home | Current Version | Previous Version | Text Only | Print | Product List | Glossary On
Versions: 1 2 3 4 5 6 7 8 9 10 11 12 13 14 15 16 17 18 19 20 21 22
000
FTUS42 KTBW 060523
TAFPGD
TAF
KPGD 060523Z 0606/0706 12008KT P6SM BKN250
     FM061100 VRB03KT P6SM SCT250
     FM061500 15005KT P6SM SCT035 SCT250
     FM061900 28007KT P6SM VCTS SCT040CB BKN250=

USA.gov is the U.S. government's official web portal to all federal, state and local government web resources and services.